Time;durP1;ratioP1;P1;durP2;ratioP2;P2;SDS_P1;SDS_P2;PMS_P1;PMS_P2;Temp;Humidity;BMP_temperature;BMP_pressure;BME280_temperature;BME280_humidity;BME280_pressure;Samples;Min_cycle;Max_cycle;Signal;HPM_P1;HPM_P2
2023/08/13 00:01:57;;;;;;;0.20;0.20;;;;;;;;;;5149651;27;20058;-49
2023/08/13 00:04:22;;;;;;;0.20;0.20;;;;;;;;;;5140927;27;20047;-48
2023/08/13 00:06:48;;;;;;;0.20;0.20;;;;;;;;;;5130025;27;20279;-48
2023/08/13 00:09:14;;;;;;;0.20;0.20;;;;;;;;;;5129868;28;20047;-44
2023/08/13 00:11:39;;;;;;;0.20;0.20;;;;;;;;;;5136932;27;20407;-49
2023/08/13 00:14:05;;;;;;;0.20;0.20;;;;;;;;;;5130772;28;20556;-50
2023/08/13 00:16:30;;;;;;;0.20;0.20;;;;;;;;;;5129625;28;20089;-45
2023/08/13 00:18:56;;;;;;;0.20;0.20;;;;;;;;;;5129528;28;20047;-47
2023/08/13 00:21:22;;;;;;;0.10;0.10;;;;;;;;;;5143564;27;20046;-46
2023/08/13 00:23:48;;;;;;;0.20;0.20;;;;;;;;;;5150456;27;20078;-48
2023/08/13 00:26:13;;;;;;;0.15;0.15;;;;;;;;;;5150153;27;20092;-48
2023/08/13 00:28:39;;;;;;;0.20;0.20;;;;;;;;;;5128870;28;20051;-49
2023/08/13 00:31:05;;;;;;;0.10;0.10;;;;;;;;;;5130038;27;20055;-49
2023/08/13 00:33:30;;;;;;;0.17;0.17;;;;;;;;;;5129539;28;20322;-48
2023/08/13 00:35:56;;;;;;;0.20;0.20;;;;;;;;;;5129620;28;20051;-49
2023/08/13 00:38:21;;;;;;;0.20;0.20;;;;;;;;;;5129484;28;20092;-48
2023/08/13 00:40:47;;;;;;;0.10;0.10;;;;;;;;;;5134110;27;20047;-46
2023/08/13 00:43:12;;;;;;;0.10;0.10;;;;;;;;;;5129175;28;20074;-48
2023/08/13 00:45:38;;;;;;;0.10;0.10;;;;;;;;;;5129112;28;20044;-49
2023/08/13 00:48:04;;;;;;;0.20;0.20;;;;;;;;;;5129471;28;20342;-49
2023/08/13 00:50:30;;;;;;;0.10;0.10;;;;;;;;;;5134789;27;20053;-49
2023/08/13 00:52:56;;;;;;;0.10;0.10;;;;;;;;;;5150567;27;20062;-49
2023/08/13 00:55:21;;;;;;;0.10;0.10;;;;;;;;;;5150081;27;20081;-49
2023/08/13 00:57:47;;;;;;;0.10;0.10;;;;;;;;;;5149800;27;20069;-49
2023/08/13 01:00:13;;;;;;;0.10;0.10;;;;;;;;;;5145870;27;20556;-50
2023/08/13 01:02:39;;;;;;;0.20;0.20;;;;;;;;;;5129374;27;20055;-48
2023/08/13 01:05:05;;;;;;;0.20;0.20;;;;;;;;;;5129132;28;20449;-47
2023/08/13 01:07:35;;;;;;;0.10;0.10;;;;;;;;;;5129556;27;20042;-47
2023/08/13 01:10:09;;;;;;;0.10;0.10;;;;;;;;;;5130543;27;20560;-45
2023/08/13 01:12:48;;;;;;;0.10;0.10;;;;;;;;;;5149092;27;20425;-45
2023/08/13 01:15:17;;;;;;;0.10;0.10;;;;;;;;;;5129035;28;20234;-48
2023/08/13 01:17:44;;;;;;;0.10;0.10;;;;;;;;;;5129417;28;20539;-49
2023/08/13 01:20:10;;;;;;;0.10;0.10;;;;;;;;;;5130434;27;20453;-50
2023/08/13 01:22:37;;;;;;;0.20;0.20;;;;;;;;;;5150373;27;20085;-49
2023/08/13 01:25:04;;;;;;;0.10;0.10;;;;;;;;;;5149949;27;20065;-48
2023/08/13 01:30:13;;;;;;;0.10;0.10;;;;;;;;;;5187307;27;20212;-44
2023/08/13 01:32:42;;;;;;;0.10;0.10;;;;;;;;;;5166078;27;20345;-48
2023/08/13 01:35:09;;;;;;;0.10;0.10;;;;;;;;;;5165739;27;20055;-48
2023/08/13 01:37:35;;;;;;;0.10;0.10;;;;;;;;;;5166436;27;20054;-48
2023/08/13 01:40:01;;;;;;;0.10;0.10;;;;;;;;;;5166462;27;20047;-47
2023/08/13 01:42:27;;;;;;;0.17;0.17;;;;;;;;;;5166181;27;20130;-47
2023/08/13 01:44:52;;;;;;;0.10;0.10;;;;;;;;;;5165784;27;20394;-48
2023/08/13 01:47:18;;;;;;;0.10;0.10;;;;;;;;;;5165750;27;20050;-48
2023/08/13 01:49:43;;;;;;;0.10;0.10;;;;;;;;;;5165873;27;20137;-47
2023/08/13 01:52:09;;;;;;;0.10;0.10;;;;;;;;;;5165150;27;20043;-48
2023/08/13 01:54:34;;;;;;;0.10;0.10;;;;;;;;;;5166338;27;20050;-46
2023/08/13 01:57:00;;;;;;;0.10;0.10;;;;;;;;;;5165068;27;20093;-44
2023/08/13 01:59:25;;;;;;;0.43;0.20;;;;;;;;;;5165232;27;20050;-48
2023/08/13 02:01:51;;;;;;;0.10;0.10;;;;;;;;;;5151254;27;20047;-48
2023/08/13 02:04:16;;;;;;;0.15;0.15;;;;;;;;;;5142933;27;20396;-49
2023/08/13 02:06:42;;;;;;;0.10;0.10;;;;;;;;;;5151506;27;20054;-48
2023/08/13 02:09:08;;;;;;;0.10;0.10;;;;;;;;;;5142988;27;20090;-49
2023/08/13 02:11:34;;;;;;;0.10;0.10;;;;;;;;;;5143538;27;20046;-47
2023/08/13 02:13:59;;;;;;;0.20;0.20;;;;;;;;;;5143740;27;20051;-48
2023/08/13 02:16:25;;;;;;;0.20;0.20;;;;;;;;;;5143171;27;20083;-50
2023/08/13 02:18:50;;;;;;;0.20;0.20;;;;;;;;;;5144393;27;20261;-49
2023/08/13 02:21:17;;;;;;;0.10;0.10;;;;;;;;;;5143205;27;20115;-50
2023/08/13 02:23:43;;;;;;;0.20;0.20;;;;;;;;;;5144077;27;20075;-47
2023/08/13 02:26:08;;;;;;;0.15;0.15;;;;;;;;;;5143189;27;20138;-45
2023/08/13 02:28:34;;;;;;;0.10;0.10;;;;;;;;;;5144348;27;20050;-46
2023/08/13 02:30:59;;;;;;;0.20;0.20;;;;;;;;;;5143865;27;20471;-50
2023/08/13 02:33:25;;;;;;;0.10;0.10;;;;;;;;;;5143183;27;20084;-47
2023/08/13 02:35:50;;;;;;;0.10;0.10;;;;;;;;;;5143453;27;20042;-48
2023/08/13 02:38:16;;;;;;;0.20;0.20;;;;;;;;;;5142926;27;20427;-48
2023/08/13 02:40:41;;;;;;;0.10;0.10;;;;;;;;;;5133956;27;20055;-46
2023/08/13 02:43:07;;;;;;;0.10;0.10;;;;;;;;;;5129586;28;20069;-48
2023/08/13 02:45:32;;;;;;;0.10;0.10;;;;;;;;;;5129723;28;20403;-49
2023/08/13 02:47:58;;;;;;;0.10;0.10;;;;;;;;;;5129702;28;20462;-47
2023/08/13 02:50:24;;;;;;;0.10;0.10;;;;;;;;;;5130878;28;20411;-54
2023/08/13 02:52:49;;;;;;;0.20;0.20;;;;;;;;;;5130177;28;20046;-54
2023/08/13 02:55:15;;;;;;;0.20;0.20;;;;;;;;;;5131014;28;20051;-55
2023/08/13 02:57:40;;;;;;;0.10;0.10;;;;;;;;;;5129980;28;20050;-51
2023/08/13 03:00:12;;;;;;;0.20;0.20;;;;;;;;;;5130904;28;20435;-48
2023/08/13 03:02:37;;;;;;;0.20;0.20;;;;;;;;;;5130208;27;20055;-48
2023/08/13 03:05:03;;;;;;;0.20;0.20;;;;;;;;;;5124063;27;20455;-48
2023/08/13 03:07:29;;;;;;;0.10;0.10;;;;;;;;;;5127048;27;20192;-48
2023/08/13 03:09:54;;;;;;;0.10;0.10;;;;;;;;;;5138435;27;20059;-49
2023/08/13 03:12:20;;;;;;;0.10;0.10;;;;;;;;;;5128803;28;20082;-46
2023/08/13 03:14:46;;;;;;;0.10;0.10;;;;;;;;;;5130402;28;20051;-47
2023/08/13 03:17:11;;;;;;;0.10;0.10;;;;;;;;;;5129334;28;20047;-48
2023/08/13 03:19:37;;;;;;;0.10;0.10;;;;;;;;;;5130020;28;20048;-48
2023/08/13 03:22:02;;;;;;;0.10;0.10;;;;;;;;;;5129345;28;20047;-48
2023/08/13 03:24:28;;;;;;;0.20;0.20;;;;;;;;;;5130016;28;20070;-49
2023/08/13 03:26:53;;;;;;;0.10;0.10;;;;;;;;;;5129273;28;20058;-48
2023/08/13 03:29:19;;;;;;;0.10;0.10;;;;;;;;;;5115710;28;20620;-48
2023/08/13 03:31:44;;;;;;;0.20;0.20;;;;;;;;;;5129463;28;20051;-47
2023/08/13 03:34:10;;;;;;;0.10;0.10;;;;;;;;;;5129257;28;20043;-49
2023/08/13 03:36:36;;;;;;;0.10;0.10;;;;;;;;;;5129194;28;20483;-49
2023/08/13 03:39:01;;;;;;;0.10;0.10;;;;;;;;;;5129701;28;20066;-44
2023/08/13 03:41:27;;;;;;;0.10;0.10;;;;;;;;;;5129365;28;20497;-49
2023/08/13 03:43:53;;;;;;;0.10;0.10;;;;;;;;;;5129558;28;20701;-47
2023/08/13 03:46:18;;;;;;;0.10;0.10;;;;;;;;;;5129000;27;20586;-45
2023/08/13 03:48:44;;;;;;;0.30;0.30;;;;;;;;;;5129059;28;20494;-48
2023/08/13 03:51:09;;;;;;;0.10;0.10;;;;;;;;;;5128790;27;20043;-47
2023/08/13 03:53:35;;;;;;;0.20;0.20;;;;;;;;;;5129049;28;20376;-48
2023/08/13 03:56:04;;;;;;;0.10;0.10;;;;;;;;;;5129705;28;20076;-46
2023/08/13 03:58:31;;;;;;;0.20;0.20;;;;;;;;;;5129170;28;20415;-45
2023/08/13 04:01:02;;;;;;;0.20;0.20;;;;;;;;;;5128348;27;20071;-47
2023/08/13 04:03:28;;;;;;;0.20;0.20;;;;;;;;;;5129016;28;20263;-47
2023/08/13 04:05:54;;;;;;;0.20;0.20;;;;;;;;;;5128573;27;20047;-48
2023/08/13 04:08:20;;;;;;;0.20;0.20;;;;;;;;;;5128109;28;20047;-49
2023/08/13 04:10:45;;;;;;;0.20;0.20;;;;;;;;;;5128165;28;20043;-44
2023/08/13 04:13:11;;;;;;;0.20;0.20;;;;;;;;;;5128581;28;20157;-45
2023/08/13 04:15:36;;;;;;;0.20;0.20;;;;;;;;;;5128230;28;20081;-48
2023/08/13 04:18:02;;;;;;;0.20;0.20;;;;;;;;;;5128750;28;20054;-48
2023/08/13 04:20:27;;;;;;;0.10;0.10;;;;;;;;;;5128666;28;20577;-47
2023/08/13 04:22:53;;;;;;;0.20;0.20;;;;;;;;;;5128891;28;20150;-48
2023/08/13 04:25:18;;;;;;;0.20;0.20;;;;;;;;;;5128754;28;20063;-48
2023/08/13 04:27:44;;;;;;;0.20;0.20;;;;;;;;;;5128763;28;20078;-46
2023/08/13 04:30:10;;;;;;;0.20;0.20;;;;;;;;;;5128595;28;20407;-49
2023/08/13 04:32:37;;;;;;;0.20;0.20;;;;;;;;;;5129376;28;20550;-48
2023/08/13 04:35:03;;;;;;;0.20;0.20;;;;;;;;;;5128154;28;20051;-47
2023/08/13 04:37:29;;;;;;;0.20;0.20;;;;;;;;;;5128023;27;20058;-47
2023/08/13 04:39:56;;;;;;;0.10;0.10;;;;;;;;;;5128642;28;20452;-47
2023/08/13 04:42:21;;;;;;;0.10;0.10;;;;;;;;;;5128417;28;20076;-45
2023/08/13 04:44:47;;;;;;;0.10;0.10;;;;;;;;;;5128615;28;20103;-47
2023/08/13 04:47:13;;;;;;;0.17;0.17;;;;;;;;;;5128163;28;20055;-44
2023/08/13 04:49:38;;;;;;;0.20;0.20;;;;;;;;;;5127363;28;20388;-47
2023/08/13 04:52:04;;;;;;;0.20;0.20;;;;;;;;;;5128391;28;20172;-45
2023/08/13 04:54:29;;;;;;;0.10;0.10;;;;;;;;;;5128107;28;20082;-47
2023/08/13 04:56:55;;;;;;;0.10;0.10;;;;;;;;;;5128448;28;20047;-45
2023/08/13 04:59:20;;;;;;;0.10;0.10;;;;;;;;;;5128965;28;20082;-48
2023/08/13 05:01:46;;;;;;;0.10;0.10;;;;;;;;;;5127622;27;20218;-48
2023/08/13 05:04:12;;;;;;;0.17;0.17;;;;;;;;;;5128424;27;20047;-46
2023/08/13 05:06:38;;;;;;;0.17;0.17;;;;;;;;;;5127382;27;20043;-48
2023/08/13 05:09:03;;;;;;;0.10;0.10;;;;;;;;;;5127476;28;20291;-44
2023/08/13 05:11:29;;;;;;;0.10;0.10;;;;;;;;;;5127893;28;20095;-45
2023/08/13 05:13:54;;;;;;;0.10;0.10;;;;;;;;;;5127486;28;20441;-47
2023/08/13 05:16:20;;;;;;;0.10;0.10;;;;;;;;;;5128397;28;20406;-49
2023/08/13 05:18:45;;;;;;;0.10;0.10;;;;;;;;;;5128375;28;20094;-49
2023/08/13 05:21:11;;;;;;;0.10;0.10;;;;;;;;;;5127250;28;20062;-46
2023/08/13 05:23:36;;;;;;;0.10;0.10;;;;;;;;;;5128577;28;20634;-49
2023/08/13 05:26:02;;;;;;;0.20;0.20;;;;;;;;;;5127144;28;20047;-49
2023/08/13 05:28:28;;;;;;;0.20;0.20;;;;;;;;;;5127997;28;20466;-48
2023/08/13 05:30:53;;;;;;;0.10;0.10;;;;;;;;;;5127679;28;20080;-48
2023/08/13 05:33:19;;;;;;;0.13;0.13;;;;;;;;;;5127934;28;20138;-47
2023/08/13 05:35:44;;;;;;;0.10;0.10;;;;;;;;;;5127278;28;20408;-45
2023/08/13 05:38:10;;;;;;;0.10;0.10;;;;;;;;;;5127587;28;20219;-47
2023/08/13 05:40:35;;;;;;;0.15;0.15;;;;;;;;;;5127339;28;20043;-45
2023/08/13 05:43:01;;;;;;;0.20;0.20;;;;;;;;;;5127308;28;20055;-48
2023/08/13 05:45:27;;;;;;;0.20;0.20;;;;;;;;;;5128650;28;20133;-45
2023/08/13 05:47:53;;;;;;;0.20;0.20;;;;;;;;;;5127044;28;20066;-46
2023/08/13 05:50:18;;;;;;;0.10;0.10;;;;;;;;;;5127674;28;20047;-48
2023/08/13 05:52:44;;;;;;;0.17;0.17;;;;;;;;;;5127637;28;20047;-47
2023/08/13 05:55:09;;;;;;;0.38;0.30;;;;;;;;;;5127777;28;20047;-49
2023/08/13 05:57:35;;;;;;;0.10;0.10;;;;;;;;;;5127929;28;20088;-49
2023/08/13 06:00:01;;;;;;;0.10;0.10;;;;;;;;;;5127886;28;20173;-47
2023/08/13 06:02:26;;;;;;;0.20;0.20;;;;;;;;;;5127543;27;20416;-49
2023/08/13 06:04:52;;;;;;;0.17;0.17;;;;;;;;;;5123082;27;20047;-47
2023/08/13 06:07:17;;;;;;;0.20;0.20;;;;;;;;;;5120794;27;20050;-48
2023/08/13 06:09:43;;;;;;;0.10;0.10;;;;;;;;;;5134266;27;20055;-46
2023/08/13 06:12:08;;;;;;;0.20;0.20;;;;;;;;;;5126947;28;20055;-47
2023/08/13 06:14:34;;;;;;;0.20;0.20;;;;;;;;;;5127305;27;20388;-49
2023/08/13 06:17:00;;;;;;;0.20;0.20;;;;;;;;;;5130174;28;20499;-48
2023/08/13 06:19:39;;;;;;;0.20;0.20;;;;;;;;;;5131214;28;20134;-44
2023/08/13 06:22:04;;;;;;;0.10;0.10;;;;;;;;;;5130768;28;20329;-47
2023/08/13 06:24:31;;;;;;;0.20;0.20;;;;;;;;;;5130300;28;20445;-44
2023/08/13 06:26:56;;;;;;;0.20;0.20;;;;;;;;;;5130246;28;20046;-49
2023/08/13 06:29:22;;;;;;;0.20;0.20;;;;;;;;;;5129878;28;20039;-49
2023/08/13 06:31:47;;;;;;;0.15;0.15;;;;;;;;;;5130401;28;20047;-48
2023/08/13 06:34:14;;;;;;;0.10;0.10;;;;;;;;;;5130993;28;20598;-48
2023/08/13 06:36:40;;;;;;;0.20;0.20;;;;;;;;;;5130624;28;20104;-49
2023/08/13 06:39:05;;;;;;;0.20;0.20;;;;;;;;;;5129849;28;20047;-45
2023/08/13 06:41:31;;;;;;;0.10;0.10;;;;;;;;;;5129342;27;20134;-48
2023/08/13 06:43:57;;;;;;;0.20;0.20;;;;;;;;;;5129927;27;20043;-48
2023/08/13 06:46:22;;;;;;;0.15;0.15;;;;;;;;;;5130168;28;20051;-46
2023/08/13 06:48:48;;;;;;;0.20;0.20;;;;;;;;;;5129262;28;20055;-45
2023/08/13 06:51:13;;;;;;;0.20;0.20;;;;;;;;;;5129485;28;20051;-46
2023/08/13 06:53:39;;;;;;;0.20;0.20;;;;;;;;;;5129127;28;20070;-48
2023/08/13 06:56:05;;;;;;;0.20;0.20;;;;;;;;;;5130225;28;20043;-45
2023/08/13 06:58:30;;;;;;;0.20;0.20;;;;;;;;;;5129634;27;20078;-44
2023/08/13 07:00:56;;;;;;;0.20;0.20;;;;;;;;;;5129681;27;20555;-47
2023/08/13 07:03:22;;;;;;;0.20;0.20;;;;;;;;;;5129289;28;20406;-48
2023/08/13 07:05:47;;;;;;;0.10;0.10;;;;;;;;;;5140550;27;20070;-47
2023/08/13 07:08:13;;;;;;;0.20;0.20;;;;;;;;;;5149924;27;20057;-46
2023/08/13 07:10:39;;;;;;;0.20;0.20;;;;;;;;;;5141990;27;20137;-48
2023/08/13 07:13:05;;;;;;;0.20;0.20;;;;;;;;;;5129363;28;20054;-49
2023/08/13 07:15:30;;;;;;;0.17;0.17;;;;;;;;;;5129580;28;20047;-49
2023/08/13 07:17:56;;;;;;;0.20;0.20;;;;;;;;;;5128560;28;20047;-49
2023/08/13 07:20:22;;;;;;;0.10;0.10;;;;;;;;;;5129212;28;20050;-48
2023/08/13 07:22:48;;;;;;;0.20;0.20;;;;;;;;;;5129671;28;20074;-45
2023/08/13 07:25:13;;;;;;;0.20;0.20;;;;;;;;;;5130133;28;20062;-45
2023/08/13 07:27:39;;;;;;;0.20;0.20;;;;;;;;;;5130058;27;20050;-48
2023/08/13 07:30:07;;;;;;;0.20;0.20;;;;;;;;;;5128662;28;20100;-46
2023/08/13 07:32:34;;;;;;;0.10;0.10;;;;;;;;;;5130257;28;20055;-48
2023/08/13 07:35:00;;;;;;;0.17;0.17;;;;;;;;;;5129962;28;20078;-46
2023/08/13 07:37:26;;;;;;;0.20;0.20;;;;;;;;;;5129250;28;20043;-49
2023/08/13 07:39:53;;;;;;;0.20;0.20;;;;;;;;;;5129086;28;20075;-47
2023/08/13 07:42:18;;;;;;;0.20;0.20;;;;;;;;;;5112300;28;20449;-45
2023/08/13 07:44:44;;;;;;;0.20;0.20;;;;;;;;;;5129532;28;20055;-47
2023/08/13 07:47:09;;;;;;;0.17;0.17;;;;;;;;;;5129301;28;20099;-48
2023/08/13 07:49:35;;;;;;;0.20;0.20;;;;;;;;;;5128863;28;20055;-49
2023/08/13 07:52:00;;;;;;;0.20;0.20;;;;;;;;;;5129931;28;20091;-49
2023/08/13 07:54:26;;;;;;;0.17;0.17;;;;;;;;;;5128240;28;20047;-46
2023/08/13 07:56:52;;;;;;;0.20;0.20;;;;;;;;;;5129630;28;20092;-45
2023/08/13 07:59:19;;;;;;;0.10;0.10;;;;;;;;;;5129713;28;20046;-44
2023/08/13 08:01:44;;;;;;;0.10;0.10;;;;;;;;;;5129008;27;20184;-45
2023/08/13 08:04:10;;;;;;;0.20;0.20;;;;;;;;;;5128869;27;20051;-43
2023/08/13 08:06:35;;;;;;;0.10;0.10;;;;;;;;;;5146120;27;20543;-44
2023/08/13 08:09:02;;;;;;;0.10;0.10;;;;;;;;;;5128771;28;20552;-48
2023/08/13 08:11:27;;;;;;;0.20;0.20;;;;;;;;;;5127973;28;20082;-45
2023/08/13 08:13:53;;;;;;;0.10;0.10;;;;;;;;;;5128573;28;20051;-46
2023/08/13 08:16:18;;;;;;;0.20;0.20;;;;;;;;;;5129287;28;20061;-44
2023/08/13 08:18:44;;;;;;;0.10;0.10;;;;;;;;;;5128544;28;20080;-46
2023/08/13 08:21:10;;;;;;;0.20;0.20;;;;;;;;;;5128535;28;20054;-44
2023/08/13 08:23:35;;;;;;;0.20;0.20;;;;;;;;;;5128736;28;20108;-46
2023/08/13 08:26:01;;;;;;;0.10;0.10;;;;;;;;;;5128468;28;20047;-44
2023/08/13 08:28:26;;;;;;;0.35;0.35;;;;;;;;;;5128612;28;20051;-44
2023/08/13 08:30:52;;;;;;;0.10;0.10;;;;;;;;;;5128067;28;20495;-47
2023/08/13 08:33:20;;;;;;;0.20;0.20;;;;;;;;;;5128375;28;20404;-43
2023/08/13 08:35:45;;;;;;;0.20;0.20;;;;;;;;;;5128297;28;20051;-45
2023/08/13 08:38:12;;;;;;;0.20;0.20;;;;;;;;;;5128137;27;20146;-44
2023/08/13 08:40:37;;;;;;;0.10;0.10;;;;;;;;;;5128220;27;20050;-45
2023/08/13 08:43:03;;;;;;;0.20;0.20;;;;;;;;;;5128642;28;20055;-45
2023/08/13 08:45:28;;;;;;;0.20;0.20;;;;;;;;;;5128402;28;20480;-45
2023/08/13 08:47:54;;;;;;;0.20;0.20;;;;;;;;;;5128399;28;20047;-45
2023/08/13 08:50:20;;;;;;;0.20;0.20;;;;;;;;;;5128112;28;20423;-46
2023/08/13 08:52:47;;;;;;;0.20;0.20;;;;;;;;;;5127955;28;20105;-48
2023/08/13 08:55:12;;;;;;;0.20;0.20;;;;;;;;;;5127929;28;20092;-44
2023/08/13 08:57:38;;;;;;;0.20;0.20;;;;;;;;;;5128197;27;20056;-45
2023/08/13 09:00:04;;;;;;;0.20;0.20;;;;;;;;;;5128574;28;20413;-43
2023/08/13 09:02:30;;;;;;;0.10;0.10;;;;;;;;;;5126075;27;20062;-44
2023/08/13 09:04:56;;;;;;;0.20;0.20;;;;;;;;;;5117586;27;20038;-44
2023/08/13 09:07:32;;;;;;;0.10;0.10;;;;;;;;;;5148808;27;20050;-45
2023/08/13 09:09:57;;;;;;;0.10;0.10;;;;;;;;;;5146620;27;20061;-46
2023/08/13 09:12:23;;;;;;;0.20;0.20;;;;;;;;;;5128220;28;20055;-43
2023/08/13 09:14:52;;;;;;;0.10;0.10;;;;;;;;;;5127879;28;20051;-44
2023/08/13 09:17:18;;;;;;;0.20;0.20;;;;;;;;;;5128675;28;20475;-45
2023/08/13 09:19:44;;;;;;;0.20;0.20;;;;;;;;;;5128258;28;20321;-47
2023/08/13 09:22:10;;;;;;;0.10;0.10;;;;;;;;;;5127096;28;20075;-46
2023/08/13 09:24:36;;;;;;;0.10;0.10;;;;;;;;;;5128293;28;20054;-46
2023/08/13 09:27:03;;;;;;;0.17;0.17;;;;;;;;;;5128064;28;20415;-44
2023/08/13 09:29:30;;;;;;;0.17;0.17;;;;;;;;;;5127642;28;20047;-47
2023/08/13 09:31:56;;;;;;;0.10;0.10;;;;;;;;;;5127576;28;20058;-45
2023/08/13 09:34:23;;;;;;;0.10;0.10;;;;;;;;;;5127306;27;20043;-44
2023/08/13 09:36:51;;;;;;;0.10;0.10;;;;;;;;;;5128238;28;20046;-44
2023/08/13 09:39:17;;;;;;;0.20;0.20;;;;;;;;;;5128044;28;20043;-44
2023/08/13 09:41:43;;;;;;;0.10;0.10;;;;;;;;;;5127451;28;20452;-47
2023/08/13 09:44:09;;;;;;;0.10;0.10;;;;;;;;;;5128141;28;20047;-45
2023/08/13 09:46:35;;;;;;;0.10;0.10;;;;;;;;;;5127855;27;20043;-48
2023/08/13 09:49:02;;;;;;;0.10;0.10;;;;;;;;;;5127735;27;20043;-44
2023/08/13 09:51:30;;;;;;;0.10;0.10;;;;;;;;;;5130365;28;20058;-45
2023/08/13 09:54:13;;;;;;;0.20;0.20;;;;;;;;;;5132012;28;20054;-44
2023/08/13 09:56:41;;;;;;;0.20;0.20;;;;;;;;;;5131566;28;20047;-43
2023/08/13 09:59:07;;;;;;;0.20;0.20;;;;;;;;;;5130868;28;20054;-44
2023/08/13 10:01:33;;;;;;;0.10;0.10;;;;;;;;;;5131171;27;20047;-45
2023/08/13 10:03:58;;;;;;;0.20;0.20;;;;;;;;;;5140341;27;20047;-44
2023/08/13 10:06:24;;;;;;;0.10;0.10;;;;;;;;;;5135699;27;20043;-47
2023/08/13 10:08:50;;;;;;;0.10;0.10;;;;;;;;;;5110921;28;20043;-45
2023/08/13 10:11:17;;;;;;;0.20;0.20;;;;;;;;;;5122700;28;20083;-46
2023/08/13 10:13:42;;;;;;;0.20;0.20;;;;;;;;;;5130249;28;20079;-45
2023/08/13 10:16:08;;;;;;;0.10;0.10;;;;;;;;;;5131412;28;20047;-43
2023/08/13 10:18:34;;;;;;;0.17;0.17;;;;;;;;;;5131279;28;20051;-47
2023/08/13 10:21:00;;;;;;;0.20;0.20;;;;;;;;;;5131070;28;20171;-44
2023/08/13 10:23:26;;;;;;;0.20;0.20;;;;;;;;;;5130379;28;20075;-44
2023/08/13 10:25:53;;;;;;;0.15;0.15;;;;;;;;;;5130708;27;20050;-45
2023/08/13 10:28:19;;;;;;;0.10;0.10;;;;;;;;;;5131129;28;20399;-46
2023/08/13 10:30:45;;;;;;;0.17;0.17;;;;;;;;;;5129572;28;20090;-46
2023/08/13 10:33:11;;;;;;;0.20;0.20;;;;;;;;;;5130393;28;20058;-45
2023/08/13 10:35:39;;;;;;;0.20;0.20;;;;;;;;;;5129764;28;20039;-43
2023/08/13 10:38:05;;;;;;;0.10;0.10;;;;;;;;;;5130670;28;20054;-45
2023/08/13 10:40:31;;;;;;;0.10;0.10;;;;;;;;;;5130057;28;20515;-45
2023/08/13 10:42:57;;;;;;;0.20;0.20;;;;;;;;;;5129756;28;20409;-48
2023/08/13 10:45:25;;;;;;;0.10;0.10;;;;;;;;;;5128847;28;20047;-44
2023/08/13 10:47:51;;;;;;;0.10;0.10;;;;;;;;;;5130890;27;20055;-48
2023/08/13 10:52:53;;;;;;;0.10;0.10;;;;;;;;;;5180301;27;20821;-45
2023/08/13 10:55:22;;;;;;;0.10;0.10;;;;;;;;;;5164583;27;20358;-44
2023/08/13 10:57:49;;;;;;;0.10;0.10;;;;;;;;;;5165429;27;20543;-46
2023/08/13 11:00:15;;;;;;;0.10;0.10;;;;;;;;;;5156589;27;20047;-46
2023/08/13 11:02:43;;;;;;;0.20;0.20;;;;;;;;;;5113167;27;20076;-47
2023/08/13 11:05:09;;;;;;;0.10;0.10;;;;;;;;;;5127532;27;20454;-43
2023/08/13 11:07:35;;;;;;;0.20;0.20;;;;;;;;;;5124746;28;20062;-46
2023/08/13 11:10:01;;;;;;;0.10;0.10;;;;;;;;;;5123461;28;20047;-44
2023/08/13 11:12:27;;;;;;;0.10;0.10;;;;;;;;;;5124609;28;20112;-43
2023/08/13 11:14:52;;;;;;;0.10;0.10;;;;;;;;;;5124399;28;20039;-43
2023/08/13 11:17:18;;;;;;;0.10;0.10;;;;;;;;;;5124196;28;20051;-45
2023/08/13 11:19:44;;;;;;;0.10;0.10;;;;;;;;;;5125040;28;20321;-44
2023/08/13 11:22:09;;;;;;;0.20;0.20;;;;;;;;;;5124349;28;20154;-44
2023/08/13 11:24:36;;;;;;;0.20;0.20;;;;;;;;;;5131349;27;20129;-46
2023/08/13 11:27:01;;;;;;;0.10;0.10;;;;;;;;;;5130310;27;20078;-47
2023/08/13 11:29:30;;;;;;;0.15;0.15;;;;;;;;;;5124262;28;20051;-44
2023/08/13 11:31:56;;;;;;;0.20;0.20;;;;;;;;;;5125807;27;20097;-43
2023/08/13 11:34:21;;;;;;;0.10;0.10;;;;;;;;;;5128804;27;20471;-49
2023/08/13 11:36:49;;;;;;;0.10;0.10;;;;;;;;;;5138472;27;20055;-43
2023/08/13 11:39:17;;;;;;;0.20;0.20;;;;;;;;;;5124793;27;20523;-45
2023/08/13 11:41:43;;;;;;;0.10;0.10;;;;;;;;;;5107849;27;20382;-43
2023/08/13 11:44:10;;;;;;;0.20;0.20;;;;;;;;;;5103759;28;20063;-44
2023/08/13 11:46:56;;;;;;;0.20;0.20;;;;;;;;;;5109855;27;20067;-45
2023/08/13 11:49:22;;;;;;;0.20;0.20;;;;;;;;;;5126890;27;20054;-45
2023/08/13 11:51:49;;;;;;;0.10;0.10;;;;;;;;;;5106385;27;20052;-44
2023/08/13 11:54:15;;;;;;;0.20;0.20;;;;;;;;;;5134569;27;20516;-43
2023/08/13 11:56:41;;;;;;;0.20;0.20;;;;;;;;;;5144633;27;20115;-44
2023/08/13 11:59:07;;;;;;;0.17;0.17;;;;;;;;;;5145061;27;20409;-44
2023/08/13 12:01:34;;;;;;;0.10;0.10;;;;;;;;;;5130561;27;20155;-45
2023/08/13 12:04:02;;;;;;;0.10;0.10;;;;;;;;;;5111958;27;20098;-45
2023/08/13 12:06:28;;;;;;;;;;;;;;;;;;5127039;28;20428;-45
2023/08/13 12:08:53;;;;;;;0.10;0.10;;;;;;;;;;5129896;28;20423;-46
2023/08/13 12:11:19;;;;;;;0.20;0.20;;;;;;;;;;5104187;28;20044;-45
2023/08/13 12:13:45;;;;;;;0.10;0.10;;;;;;;;;;5089235;28;20063;-44
2023/08/13 12:16:11;;;;;;;0.13;0.13;;;;;;;;;;5089458;28;20125;-44
2023/08/13 12:18:37;;;;;;;0.10;0.10;;;;;;;;;;5088397;28;20151;-44
2023/08/13 12:21:02;;;;;;;0.10;0.10;;;;;;;;;;5088757;28;20048;-44
2023/08/13 12:23:28;;;;;;;0.10;0.10;;;;;;;;;;5088185;28;20048;-44
2023/08/13 12:25:53;;;;;;;0.10;0.10;;;;;;;;;;5100244;28;20070;-45
2023/08/13 12:28:19;;;;;;;0.10;0.10;;;;;;;;;;5109543;28;20468;-47
2023/08/13 12:30:45;;;;;;;0.13;0.13;;;;;;;;;;5101354;28;20052;-43
2023/08/13 12:33:10;;;;;;;0.20;0.20;;;;;;;;;;5097824;28;20381;-45
2023/08/13 12:35:36;;;;;;;0.10;0.10;;;;;;;;;;5112501;28;20448;-43
2023/08/13 12:38:01;;;;;;;0.20;0.20;;;;;;;;;;5112116;28;20051;-48
2023/08/13 12:40:27;;;;;;;0.10;0.10;;;;;;;;;;5103268;28;20455;-44
2023/08/13 12:42:53;;;;;;;0.10;0.10;;;;;;;;;;5088885;28;20052;-44
2023/08/13 12:45:19;;;;;;;0.10;0.10;;;;;;;;;;5089075;28;20048;-46
2023/08/13 12:47:44;;;;;;;0.10;0.10;;;;;;;;;;5088950;28;20056;-43
2023/08/13 12:50:10;;;;;;;0.20;0.20;;;;;;;;;;5107621;28;20043;-46
2023/08/13 12:52:35;;;;;;;0.10;0.10;;;;;;;;;;5112651;28;20054;-45
2023/08/13 12:55:01;;;;;;;0.10;0.10;;;;;;;;;;5114155;28;20106;-44
2023/08/13 12:57:27;;;;;;;0.10;0.10;;;;;;;;;;5129066;28;20055;-47
2023/08/13 12:59:53;;;;;;;0.10;0.10;;;;;;;;;;5128694;28;20503;-44
2023/08/13 13:02:19;;;;;;;0.10;0.10;;;;;;;;;;5101746;28;20039;-47
2023/08/13 13:04:45;;;;;;;0.10;0.10;;;;;;;;;;5111949;28;20058;-44
2023/08/13 13:07:10;;;;;;;0.10;0.10;;;;;;;;;;5108544;28;20088;-44
2023/08/13 13:09:36;;;;;;;0.10;0.10;;;;;;;;;;5109115;28;20076;-46
2023/08/13 13:12:01;;;;;;;0.10;0.10;;;;;;;;;;5089812;28;20175;-46
2023/08/13 13:14:27;;;;;;;0.10;0.10;;;;;;;;;;5087372;28;20063;-47
2023/08/13 13:16:58;;;;;;;0.10;0.10;;;;;;;;;;5087730;28;20402;-44
2023/08/13 13:19:23;;;;;;;0.20;0.20;;;;;;;;;;5088153;28;20074;-46
2023/08/13 13:21:49;;;;;;;0.10;0.10;;;;;;;;;;5088467;28;20434;-45
2023/08/13 13:24:15;;;;;;;0.20;0.20;;;;;;;;;;5088129;28;20083;-45
2023/08/13 13:26:40;;;;;;;0.10;0.10;;;;;;;;;;5093235;28;20495;-48
2023/08/13 13:29:06;;;;;;;0.20;0.20;;;;;;;;;;5125417;28;20061;-43
2023/08/13 13:31:32;;;;;;;0.10;0.10;;;;;;;;;;5114414;28;20043;-44
2023/08/13 13:33:57;;;;;;;0.20;0.20;;;;;;;;;;5108553;28;20055;-47
2023/08/13 13:36:23;;;;;;;0.20;0.20;;;;;;;;;;5123881;28;20484;-48
2023/08/13 13:38:48;;;;;;;0.10;0.10;;;;;;;;;;5123693;28;20464;-45
2023/08/13 13:41:14;;;;;;;0.10;0.10;;;;;;;;;;5122220;28;20290;-47
2023/08/13 13:43:39;;;;;;;0.20;0.20;;;;;;;;;;5129488;28;20549;-44
2023/08/13 13:46:05;;;;;;;0.10;0.10;;;;;;;;;;5129638;28;20044;-44
2023/08/13 13:48:30;;;;;;;0.20;0.20;;;;;;;;;;5129634;28;20443;-43
2023/08/13 13:50:56;;;;;;;0.10;0.10;;;;;;;;;;5119693;28;20051;-45
2023/08/13 13:53:21;;;;;;;0.20;0.20;;;;;;;;;;5116763;28;20043;-46
2023/08/13 13:55:48;;;;;;;0.10;0.10;;;;;;;;;;5128156;28;20043;-43
2023/08/13 13:58:13;;;;;;;0.10;0.10;;;;;;;;;;5127074;28;20092;-45
2023/08/13 14:00:39;;;;;;;0.10;0.10;;;;;;;;;;5111676;28;20321;-45
2023/08/13 14:03:04;;;;;;;0.20;0.20;;;;;;;;;;5114369;28;20142;-45
2023/08/13 14:05:30;;;;;;;0.10;0.10;;;;;;;;;;5118124;28;20074;-44
2023/08/13 14:07:56;;;;;;;0.10;0.10;;;;;;;;;;5127938;28;20047;-44
2023/08/13 14:10:21;;;;;;;0.10;0.10;;;;;;;;;;5123908;28;20601;-47
2023/08/13 14:12:47;;;;;;;0.10;0.10;;;;;;;;;;5108064;28;20055;-47
2023/08/13 14:15:12;;;;;;;0.20;0.20;;;;;;;;;;5108541;28;20454;-44
2023/08/13 14:17:38;;;;;;;0.10;0.10;;;;;;;;;;5108296;28;20433;-44
2023/08/13 14:20:04;;;;;;;0.10;0.10;;;;;;;;;;5108297;28;20510;-48
2023/08/13 14:22:30;;;;;;;0.10;0.10;;;;;;;;;;5108396;28;20321;-45
2023/08/13 14:24:56;;;;;;;0.10;0.10;;;;;;;;;;5107792;28;20405;-45
2023/08/13 14:27:21;;;;;;;0.20;0.20;;;;;;;;;;5108141;28;20468;-48
2023/08/13 14:29:52;;;;;;;0.10;0.10;;;;;;;;;;5109628;28;20510;-47
2023/08/13 14:32:17;;;;;;;0.10;0.10;;;;;;;;;;5125019;28;20237;-47
2023/08/13 14:34:43;;;;;;;0.10;0.10;;;;;;;;;;5127534;28;20047;-46
2023/08/13 14:37:09;;;;;;;0.13;0.13;;;;;;;;;;5115761;28;20051;-49
2023/08/13 14:39:34;;;;;;;0.10;0.10;;;;;;;;;;5111988;28;20422;-44
2023/08/13 14:42:00;;;;;;;0.20;0.20;;;;;;;;;;5098079;28;20561;-45